createdAt,value
2019-02-26T00:01:18.333Z,1036.54
2019-02-26T00:02:33.765Z,1036.5
2019-02-26T00:03:47.151Z,1036.53
2019-02-26T00:04:58.539Z,1036.56
2019-02-26T00:06:10.411Z,1036.47
2019-02-26T00:07:27.956Z,1036.37
2019-02-26T00:08:39.399Z,1036.35
2019-02-26T00:09:59.541Z,1036.27
2019-02-26T00:11:12.884Z,1036.25
2019-02-26T00:12:28.608Z,1036.21
2019-02-26T00:13:40.877Z,1036.22
2019-02-26T00:14:56.911Z,1036.2
2019-02-26T00:16:11.002Z,1036.17
2019-02-26T00:17:25.987Z,1036.18
2019-02-26T00:18:42.651Z,1036.22
2019-02-26T00:19:52.722Z,1036.24
2019-02-26T00:21:03.249Z,1036.24
2019-02-26T00:22:15.818Z,1036.23
2019-02-26T00:23:27.821Z,1036.23
2019-02-26T00:24:39.742Z,1036.2
2019-02-26T00:25:51.969Z,1036.27
2019-02-26T00:27:03.629Z,1036.25
2019-02-26T00:28:17.590Z,1036.25
2019-02-26T00:29:29.836Z,1036.22
2019-02-26T00:30:42.461Z,1036.24
2019-02-26T00:31:52.909Z,1036.21
2019-02-26T00:33:05.386Z,1036.15
2019-02-26T00:34:16.653Z,1036.2
2019-02-26T00:35:28.046Z,1036.17
2019-02-26T00:36:40.352Z,1036.13
2019-02-26T00:37:51.090Z,1036.12
2019-02-26T00:39:04.960Z,1036.14
2019-02-26T00:40:17.157Z,1036.14
2019-02-26T00:41:29.054Z,1036.16
2019-02-26T00:42:43.335Z,1036.15
2019-02-26T00:44:04.135Z,1036.14
2019-02-26T00:45:14.014Z,1036.1
2019-02-26T00:46:35.229Z,1036.16
2019-02-26T00:47:46.737Z,1036.13
2019-02-26T00:48:58.581Z,1036.14
2019-02-26T00:50:14.180Z,1036.13
2019-02-26T00:51:25.190Z,1036.1
2019-02-26T00:52:37.410Z,1036.11
2019-02-26T00:53:49.316Z,1036.18
2019-02-26T00:55:07.561Z,1036.22
2019-02-26T00:56:18.962Z,1036.24
2019-02-26T00:57:40.586Z,1036.24
2019-02-26T00:58:52.211Z,1036.23
2019-02-26T01:00:03.320Z,1036.24
2019-02-26T01:01:19.430Z,1036.24
2019-02-26T01:02:31.496Z,1036.28
2019-02-26T01:03:42.888Z,1036.23
2019-02-26T01:04:56.890Z,1036.25
2019-02-26T01:06:11.237Z,1036.22
2019-02-26T01:07:23.839Z,1036.21
2019-02-26T01:08:37.921Z,1036.23
2019-02-26T01:09:54.221Z,1036.22
2019-02-26T01:11:08.212Z,1036.19
2019-02-26T01:12:19.942Z,1036.21
2019-02-26T01:13:33.050Z,1036.21
2019-02-26T01:14:44.000Z,1036.24
2019-02-26T01:15:57.945Z,1036.24
2019-02-26T01:17:09.774Z,1036.29
2019-02-26T01:18:24.509Z,1036.29
2019-02-26T01:19:38.558Z,1036.27
2019-02-26T01:20:50.660Z,1036.33
2019-02-26T01:22:07.230Z,1036.35
2019-02-26T01:23:19.360Z,1036.36
2019-02-26T01:24:34.036Z,1036.34
2019-02-26T01:25:44.021Z,1036.43
2019-02-26T01:26:57.507Z,1036.44
2019-02-26T01:28:07.241Z,1036.43
2019-02-26T01:29:25.804Z,1036.45
2019-02-26T01:30:39.559Z,1036.44
2019-02-26T01:31:56.615Z,1036.38
2019-02-26T01:33:11.486Z,1036.36
2019-02-26T01:34:24.701Z,1036.32
2019-02-26T01:35:35.565Z,1036.32
2019-02-26T01:36:47.616Z,1036.31
2019-02-26T01:37:58.520Z,1036.28
2019-02-26T01:39:11.934Z,1036.28
2019-02-26T01:40:28.492Z,1036.28
2019-02-26T01:41:47.814Z,1036.29
2019-02-26T01:43:05.597Z,1036.28
2019-02-26T01:44:14.911Z,1036.28
2019-02-26T01:45:30.305Z,1036.25
2019-02-26T01:46:41.774Z,1036.24
2019-02-26T01:47:52.760Z,1036.22
2019-02-26T01:49:06.334Z,1036.19
2019-02-26T01:50:17.957Z,1036.18
2019-02-26T01:51:29.002Z,1036.13
2019-02-26T01:52:51.803Z,1036.15
2019-02-26T01:54:07.955Z,1036.09
2019-02-26T01:55:22.933Z,1036.12
2019-02-26T01:56:36.456Z,1036.1
2019-02-26T01:57:47.010Z,1036.09
2019-02-26T01:59:02.078Z,1036.08
2019-02-26T02:00:12.120Z,1036.09
2019-02-26T02:01:23.812Z,1036.05
2019-02-26T02:02:33.762Z,1035.99
2019-02-26T02:03:44.606Z,1035.99
2019-02-26T02:05:02.837Z,1036.01
2019-02-26T02:06:15.907Z,1035.98
2019-02-26T02:07:28.641Z,1036
2019-02-26T02:08:39.789Z,1036.02
2019-02-26T02:10:00.470Z,1036.02
2019-02-26T02:11:10.893Z,1035.99
2019-02-26T02:12:25.929Z,1035.99
2019-02-26T02:13:44.178Z,1036.01
2019-02-26T02:14:53.924Z,1036
2019-02-26T02:16:04.461Z,1036.02
2019-02-26T02:17:16.183Z,1036.01
2019-02-26T02:18:27.637Z,1036.01
2019-02-26T02:19:39.385Z,1036.07
2019-02-26T02:20:49.369Z,1036.06
2019-02-26T02:21:58.619Z,1036.08
2019-02-26T02:23:08.102Z,1036.04
2019-02-26T02:24:20.590Z,1036.02
2019-02-26T02:25:33.731Z,1035.97
2019-02-26T02:26:52.672Z,1035.99
2019-02-26T02:28:05.613Z,1035.95
2019-02-26T02:29:21.498Z,1035.87
2019-02-26T02:30:35.390Z,1035.87
2019-02-26T02:31:46.565Z,1035.77
2019-02-26T02:33:06.263Z,1035.8
2019-02-26T02:34:26.890Z,1035.81
2019-02-26T02:35:45.744Z,1035.87
2019-02-26T02:36:55.744Z,1035.83
2019-02-26T02:38:05.496Z,1035.84
2019-02-26T02:39:20.851Z,1035.81
2019-02-26T02:40:34.708Z,1035.82
2019-02-26T02:41:55.213Z,1035.77
2019-02-26T02:43:07.911Z,1035.79
2019-02-26T02:44:26.565Z,1035.73
2019-02-26T02:45:36.293Z,1035.71
2019-02-26T02:46:48.540Z,1035.65
2019-02-26T02:48:03.232Z,1035.67
2019-02-26T02:49:18.606Z,1035.66
2019-02-26T02:50:30.547Z,1035.65
2019-02-26T02:51:40.279Z,1035.64
2019-02-26T02:52:50.781Z,1035.63
2019-02-26T02:54:06.946Z,1035.59
2019-02-26T02:55:26.615Z,1035.54
2019-02-26T02:56:39.917Z,1035.51
2019-02-26T02:57:53.001Z,1035.49
2019-02-26T02:59:08.824Z,1035.45
2019-02-26T03:00:23.632Z,1035.44
2019-02-26T03:01:39.769Z,1035.48
2019-02-26T03:02:58.401Z,1035.47
2019-02-26T03:04:08.166Z,1035.5
2019-02-26T03:05:31.976Z,1035.45
2019-02-26T03:06:52.921Z,1035.45
2019-02-26T03:08:10.598Z,1035.5
2019-02-26T03:09:27.190Z,1035.49
2019-02-26T03:10:46.318Z,1035.56
2019-02-26T03:11:56.321Z,1035.64
2019-02-26T03:13:06.081Z,1035.62
2019-02-26T03:14:21.539Z,1035.61
2019-02-26T03:15:39.340Z,1035.62
2019-02-26T03:16:53.980Z,1035.58
2019-02-26T03:18:09.322Z,1035.56
2019-02-26T03:19:22.237Z,1035.52
2019-02-26T03:20:40.210Z,1035.5
2019-02-26T03:21:54.994Z,1035.51
2019-02-26T03:23:07.093Z,1035.47
2019-02-26T03:24:28.051Z,1035.45
2019-02-26T03:25:41.962Z,1035.51
2019-02-26T03:26:57.956Z,1035.5
2019-02-26T03:28:07.977Z,1035.52
2019-02-26T03:29:17.733Z,1035.44
2019-02-26T03:30:32.481Z,1035.48
2019-02-26T03:31:55.066Z,1035.38
2019-02-26T03:33:05.331Z,1035.41
2019-02-26T03:34:20.179Z,1035.37
2019-02-26T03:35:33.263Z,1035.41
2019-02-26T03:36:45.624Z,1035.33
2019-02-26T03:37:57.899Z,1035.32
2019-02-26T03:39:10.951Z,1035.29
2019-02-26T03:40:21.379Z,1035.36
2019-02-26T03:41:38.961Z,1035.34
2019-02-26T03:42:56.956Z,1035.35
2019-02-26T03:44:16.781Z,1035.38
2019-02-26T03:45:30.719Z,1035.42
2019-02-26T03:46:39.949Z,1035.44
2019-02-26T03:47:49.962Z,1035.4
2019-02-26T03:49:03.950Z,1035.39
2019-02-26T03:50:13.444Z,1035.4
2019-02-26T03:51:27.024Z,1035.46
2019-02-26T03:52:39.692Z,1035.51
2019-02-26T03:53:49.432Z,1035.51
2019-02-26T03:54:59.417Z,1035.48
2019-02-26T03:56:20.502Z,1035.48
2019-02-26T03:57:30.347Z,1035.49
2019-02-26T03:58:52.036Z,1035.5
2019-02-26T04:00:14.754Z,1035.51
2019-02-26T04:01:27.887Z,1035.51
2019-02-26T04:02:39.747Z,1035.56
2019-02-26T04:03:57.709Z,1035.52
2019-02-26T04:05:12.432Z,1035.5
2019-02-26T04:06:22.189Z,1035.48
2019-02-26T04:07:38.829Z,1035.47
2019-02-26T04:08:55.917Z,1035.47
2019-02-26T04:10:06.041Z,1035.45
2019-02-26T04:11:16.696Z,1035.43
2019-02-26T04:12:35.783Z,1035.39
2019-02-26T04:13:56.771Z,1035.39
2019-02-26T04:15:12.831Z,1035.37
2019-02-26T04:16:24.873Z,1035.43
2019-02-26T04:17:42.214Z,1035.45
2019-02-26T04:18:52.112Z,1035.4
2019-02-26T04:20:02.534Z,1035.41
2019-02-26T04:21:18.247Z,1035.41
2019-02-26T04:22:28.697Z,1035.42
2019-02-26T04:23:44.383Z,1035.41
2019-02-26T04:25:00.798Z,1035.35
2019-02-26T04:26:20.711Z,1035.3
2019-02-26T04:27:39.224Z,1035.23
2019-02-26T04:28:51.532Z,1035.21
2019-02-26T04:30:02.679Z,1035.18
2019-02-26T04:31:19.773Z,1035.15
2019-02-26T04:32:29.727Z,1035.17
2019-02-26T04:33:46.665Z,1035.18
2019-02-26T04:35:06.627Z,1035.21
2019-02-26T04:36:17.411Z,1035.2
2019-02-26T04:37:32.225Z,1035.22
2019-02-26T04:38:45.516Z,1035.27
2019-02-26T04:40:02.099Z,1035.28
2019-02-26T04:41:19.393Z,1035.27
2019-02-26T04:42:28.871Z,1035.26
2019-02-26T04:43:46.533Z,1035.31
2019-02-26T04:45:08.862Z,1035.38
2019-02-26T04:46:18.952Z,1035.43
2019-02-26T04:47:36.556Z,1035.44
2019-02-26T04:48:57.471Z,1035.47
2019-02-26T04:50:08.924Z,1035.43
2019-02-26T04:51:23.449Z,1035.46
2019-02-26T04:52:38.248Z,1035.53
2019-02-26T04:53:51.935Z,1035.49
2019-02-26T04:55:07.129Z,1035.49
2019-02-26T04:56:17.097Z,1035.44
2019-02-26T04:57:32.004Z,1035.45
2019-02-26T04:58:51.401Z,1035.49
2019-02-26T05:00:07.210Z,1035.46
2019-02-26T05:01:19.009Z,1035.45
2019-02-26T05:02:29.136Z,1035.48
2019-02-26T05:03:39.081Z,1035.51
2019-02-26T05:04:49.030Z,1035.53
2019-02-26T05:06:00.078Z,1035.56
2019-02-26T05:07:18.772Z,1035.55
2019-02-26T05:08:29.308Z,1035.5
2019-02-26T05:09:50.014Z,1035.54
2019-02-26T05:11:06.983Z,1035.5
2019-02-26T05:12:42.596Z,1035.52
2019-02-26T05:13:56.652Z,1035.58
2019-02-26T05:15:11.415Z,1035.59
2019-02-26T05:16:37.697Z,1035.61
2019-02-26T05:17:47.831Z,1035.6
2019-02-26T05:18:58.438Z,1035.55
2019-02-26T05:20:10.393Z,1035.53
2019-02-26T05:21:27.044Z,1035.46
2019-02-26T05:22:42.432Z,1035.43
2019-02-26T05:23:59.987Z,1035.42
2019-02-26T05:25:16.248Z,1035.4
2019-02-26T05:26:29.853Z,1035.41
2019-02-26T05:27:42.725Z,1035.4
2019-02-26T05:28:56.240Z,1035.39
2019-02-26T05:30:06.937Z,1035.41
2019-02-26T05:31:29.477Z,1035.39
2019-02-26T05:32:46.116Z,1035.43
2019-02-26T05:34:06.070Z,1035.43
2019-02-26T05:35:26.094Z,1035.55
2019-02-26T05:36:40.174Z,1035.53
2019-02-26T05:37:55.410Z,1035.56
2019-02-26T05:39:14.441Z,1035.54
2019-02-26T05:40:31.724Z,1035.56
2019-02-26T05:41:55.491Z,1035.65
2019-02-26T05:43:11.419Z,1035.62
2019-02-26T05:44:25.662Z,1035.6
2019-02-26T05:45:35.747Z,1035.61
2019-02-26T05:46:47.386Z,1035.62
2019-02-26T05:48:04.368Z,1035.61
2019-02-26T05:49:20.878Z,1035.67
2019-02-26T05:50:36.084Z,1035.64
2019-02-26T05:51:53.430Z,1035.65
2019-02-26T05:53:11.147Z,1035.61
2019-02-26T05:54:24.460Z,1035.63
2019-02-26T05:55:34.282Z,1035.68
2019-02-26T05:56:53.675Z,1035.61
2019-02-26T05:58:07.872Z,1035.63
2019-02-26T05:59:26.067Z,1035.69
2019-02-26T06:00:35.515Z,1035.67
2019-02-26T06:01:46.525Z,1035.67
2019-02-26T06:03:06.108Z,1035.67
2019-02-26T06:04:21.734Z,1035.64
2019-02-26T06:05:32.978Z,1035.68
2019-02-26T06:06:53.824Z,1035.69
2019-02-26T06:08:09.996Z,1035.68
2019-02-26T06:09:22.199Z,1035.74
2019-02-26T06:10:38.570Z,1035.79
2019-02-26T06:11:50.049Z,1035.75
2019-02-26T06:13:01.967Z,1035.75
2019-02-26T06:14:18.376Z,1035.77
2019-02-26T06:15:37.659Z,1035.81
2019-02-26T06:16:48.661Z,1035.81
2019-02-26T06:18:03.246Z,1035.78
2019-02-26T06:19:13.368Z,1035.82
2019-02-26T06:20:26.564Z,1035.83
2019-02-26T06:21:43.742Z,1035.82
2019-02-26T06:22:59.501Z,1035.83
2019-02-26T06:24:08.768Z,1035.87
2019-02-26T06:25:24.259Z,1035.83
2019-02-26T06:26:36.058Z,1035.87
2019-02-26T06:27:50.814Z,1035.87
2019-02-26T06:29:08.174Z,1035.87
2019-02-26T06:30:22.704Z,1035.87
2019-02-26T06:31:32.388Z,1035.92
2019-02-26T06:32:49.827Z,1035.86
2019-02-26T06:34:06.324Z,1035.87
2019-02-26T06:35:24.362Z,1035.91
2019-02-26T06:36:39.390Z,1035.87
2019-02-26T06:37:55.625Z,1035.81
2019-02-26T06:39:12.631Z,1035.79
2019-02-26T06:40:32.371Z,1035.78
2019-02-26T06:41:51.964Z,1035.8
2019-02-26T06:43:03.434Z,1035.79
2019-02-26T06:44:12.947Z,1035.76
2019-02-26T06:45:22.883Z,1035.8
2019-02-26T06:46:33.682Z,1035.79
2019-02-26T06:47:48.382Z,1035.84
2019-02-26T06:49:03.611Z,1035.83
2019-02-26T06:50:15.709Z,1035.86
2019-02-26T06:51:28.126Z,1035.87
2019-02-26T06:52:40.293Z,1035.86
2019-02-26T06:53:56.906Z,1035.87
2019-02-26T06:55:08.722Z,1035.84
2019-02-26T06:56:18.369Z,1035.84
2019-02-26T06:57:28.076Z,1035.82
2019-02-26T06:58:43.186Z,1035.83
2019-02-26T06:59:56.225Z,1035.8
2019-02-26T07:01:12.013Z,1035.86
2019-02-26T07:02:28.323Z,1035.85
2019-02-26T07:03:40.415Z,1035.84
2019-02-26T07:04:50.362Z,1035.81
2019-02-26T07:06:03.141Z,1035.81
2019-02-26T07:07:14.651Z,1035.78
2019-02-26T07:08:26.590Z,1035.79
2019-02-26T07:09:39.161Z,1035.76
2019-02-26T07:10:51.536Z,1035.75
2019-02-26T07:12:01.245Z,1035.81
2019-02-26T07:13:12.250Z,1035.78
2019-02-26T07:14:23.251Z,1035.72
2019-02-26T07:15:39.487Z,1035.73
2019-02-26T07:16:52.275Z,1035.73
2019-02-26T07:18:07.629Z,1035.71
2019-02-26T07:19:25.878Z,1035.72
2019-02-26T07:20:46.452Z,1035.65
2019-02-26T07:22:02.967Z,1035.7
2019-02-26T07:23:20.679Z,1035.75
2019-02-26T07:24:38.279Z,1035.75
2019-02-26T07:25:56.531Z,1035.78
2019-02-26T07:27:06.650Z,1035.79
2019-02-26T07:28:20.449Z,1035.82
2019-02-26T07:29:36.868Z,1035.8
2019-02-26T07:30:56.548Z,1035.82
2019-02-26T07:32:17.199Z,1035.8
2019-02-26T07:33:30.574Z,1035.81
2019-02-26T07:34:47.772Z,1035.79
2019-02-26T07:36:02.198Z,1035.78
2019-02-26T07:37:15.751Z,1035.84
2019-02-26T07:38:27.462Z,1035.85
2019-02-26T07:39:51.704Z,1035.87
2019-02-26T07:41:03.604Z,1035.89
2019-02-26T07:42:14.502Z,1035.85
2019-02-26T07:43:26.294Z,1035.85
2019-02-26T07:44:41.962Z,1035.86
2019-02-26T07:45:51.896Z,1035.86
2019-02-26T07:47:03.546Z,1035.79
2019-02-26T07:48:18.673Z,1035.72
2019-02-26T07:49:36.348Z,1035.79
2019-02-26T07:50:48.248Z,1035.79
2019-02-26T07:52:00.267Z,1035.8
2019-02-26T07:53:14.996Z,1035.78
2019-02-26T07:54:29.859Z,1035.76
2019-02-26T07:55:44.459Z,1035.76
2019-02-26T07:56:55.100Z,1035.73
2019-02-26T07:58:11.047Z,1035.7
2019-02-26T07:59:27.543Z,1035.72
2019-02-26T08:00:49.707Z,1035.7
2019-02-26T08:02:01.687Z,1035.71
2019-02-26T08:03:17.319Z,1035.69
2019-02-26T08:04:36.229Z,1035.65
2019-02-26T08:05:48.364Z,1035.59
2019-02-26T08:07:03.354Z,1035.61
2019-02-26T08:08:14.310Z,1035.59
2019-02-26T08:09:28.239Z,1035.61
2019-02-26T08:10:40.011Z,1035.64
2019-02-26T08:11:56.038Z,1035.6
2019-02-26T08:13:14.181Z,1035.58
2019-02-26T08:14:26.568Z,1035.66
2019-02-26T08:15:39.862Z,1035.67
2019-02-26T08:16:53.545Z,1035.67
2019-02-26T08:18:08.955Z,1035.65
2019-02-26T08:19:18.637Z,1035.62
2019-02-26T08:20:35.588Z,1035.61
2019-02-26T08:21:50.151Z,1035.58
2019-02-26T08:23:02.488Z,1035.55
2019-02-26T08:24:14.763Z,1035.57
2019-02-26T08:25:29.785Z,1035.53
2019-02-26T08:26:40.438Z,1035.54
2019-02-26T08:27:56.305Z,1035.57
2019-02-26T08:29:09.809Z,1035.58
2019-02-26T08:30:22.994Z,1035.6
2019-02-26T08:31:33.539Z,1035.58
2019-02-26T08:32:53.375Z,1035.6
2019-02-26T08:34:12.584Z,1035.61
2019-02-26T08:35:23.450Z,1035.64
2019-02-26T08:36:32.879Z,1035.66
2019-02-26T08:37:46.738Z,1035.62
2019-02-26T08:38:57.274Z,1035.63
2019-02-26T08:40:06.999Z,1035.62
2019-02-26T08:41:17.166Z,1035.66
2019-02-26T08:42:26.615Z,1035.7
2019-02-26T08:43:36.296Z,1035.76
2019-02-26T08:44:59.138Z,1035.75
2019-02-26T08:46:09.785Z,1035.78
2019-02-26T08:47:24.189Z,1035.79
2019-02-26T08:48:33.873Z,1035.85
2019-02-26T08:49:51.288Z,1035.83
2019-02-26T08:51:08.840Z,1035.83
2019-02-26T08:52:28.835Z,1035.83
2019-02-26T08:53:38.972Z,1035.78
2019-02-26T08:54:55.896Z,1035.7
2019-02-26T08:56:08.402Z,1035.71
2019-02-26T08:57:19.345Z,1035.68
2019-02-26T08:58:29.052Z,1035.66
2019-02-26T08:59:42.174Z,1035.64
2019-02-26T09:00:59.325Z,1035.63
2019-02-26T09:02:09.060Z,1035.59
2019-02-26T09:03:20.407Z,1035.6
2019-02-26T09:04:30.472Z,1035.59
2019-02-26T09:05:49.344Z,1035.6
2019-02-26T09:07:19.394Z,1035.62
2019-02-26T09:08:32.988Z,1035.59
2019-02-26T09:09:50.017Z,1035.6
2019-02-26T09:11:08.583Z,1035.62
2019-02-26T09:12:22.327Z,1035.58
2019-02-26T09:13:36.166Z,1035.58
2019-02-26T09:14:50.608Z,1035.56
2019-02-26T09:16:02.881Z,1035.58
2019-02-26T09:17:18.687Z,1035.57
2019-02-26T09:18:42.448Z,1035.53
2019-02-26T09:19:53.189Z,1035.55
2019-02-26T09:21:18.612Z,1035.53
2019-02-26T09:22:30.837Z,1035.51
2019-02-26T09:23:47.374Z,1035.47
2019-02-26T09:25:10.341Z,1035.5
2019-02-26T09:26:23.218Z,1035.52
2019-02-26T09:27:34.463Z,1035.54
2019-02-26T09:28:52.279Z,1035.54
2019-02-26T09:30:05.814Z,1035.58
2019-02-26T09:31:21.969Z,1035.57
2019-02-26T09:32:32.635Z,1035.55
2019-02-26T09:33:49.644Z,1035.56
2019-02-26T09:35:01.462Z,1035.54
2019-02-26T09:36:14.854Z,1035.48
2019-02-26T09:37:32.139Z,1035.51
2019-02-26T09:38:44.264Z,1035.51
2019-02-26T09:39:59.206Z,1035.53
2019-02-26T09:41:14.103Z,1035.55
2019-02-26T09:42:29.966Z,1035.58
2019-02-26T09:43:40.913Z,1035.62
2019-02-26T09:44:55.234Z,1035.59
2019-02-26T09:46:09.676Z,1035.59
2019-02-26T09:47:26.046Z,1035.6
2019-02-26T09:48:42.845Z,1035.59
2019-02-26T09:49:54.350Z,1035.66
2019-02-26T09:51:07.425Z,1035.63
2019-02-26T09:52:24.649Z,1035.64
2019-02-26T09:53:38.374Z,1035.67
2019-02-26T09:54:52.901Z,1035.67
2019-02-26T09:56:04.271Z,1035.71
2019-02-26T09:57:16.040Z,1035.71
2019-02-26T09:58:33.370Z,1035.69
2019-02-26T09:59:52.597Z,1035.64
2019-02-26T10:01:09.033Z,1035.65
2019-02-26T10:02:24.509Z,1035.66
2019-02-26T10:03:38.615Z,1035.7
2019-02-26T10:04:49.941Z,1035.71
2019-02-26T10:06:02.094Z,1035.7
2019-02-26T10:07:16.424Z,1035.78
2019-02-26T10:08:30.430Z,1035.75
2019-02-26T10:09:45.722Z,1035.73
2019-02-26T10:10:59.626Z,1035.69
2019-02-26T10:12:13.396Z,1035.72
2019-02-26T10:13:28.471Z,1035.74
2019-02-26T10:14:40.000Z,1035.72
2019-02-26T10:15:52.671Z,1035.74
2019-02-26T10:17:12.414Z,1035.75
2019-02-26T10:18:27.896Z,1035.73
2019-02-26T10:19:42.861Z,1035.75
2019-02-26T10:20:54.591Z,1035.72
2019-02-26T10:22:10.685Z,1035.74
2019-02-26T10:23:24.005Z,1035.75
2019-02-26T10:24:40.286Z,1035.77
2019-02-26T10:25:52.955Z,1035.76
2019-02-26T10:27:13.459Z,1035.76
2019-02-26T10:28:23.832Z,1035.72
2019-02-26T10:29:45.011Z,1035.72
2019-02-26T10:30:59.619Z,1035.7
2019-02-26T10:32:15.037Z,1035.72
2019-02-26T10:33:28.986Z,1035.67
2019-02-26T10:34:51.159Z,1035.69
2019-02-26T10:36:00.590Z,1035.7
2019-02-26T10:37:18.939Z,1035.74
2019-02-26T10:38:33.616Z,1035.75
2019-02-26T10:39:47.822Z,1035.74
2019-02-26T10:41:02.431Z,1035.73
2019-02-26T10:42:12.759Z,1035.68
2019-02-26T10:43:26.068Z,1035.72
2019-02-26T10:44:36.010Z,1035.72
2019-02-26T10:45:50.022Z,1035.7
2019-02-26T10:47:03.141Z,1035.71
2019-02-26T10:48:18.586Z,1035.7
2019-02-26T10:49:33.239Z,1035.66
2019-02-26T10:50:46.688Z,1035.63
2019-02-26T10:51:59.600Z,1035.68
2019-02-26T10:53:16.320Z,1035.65
2019-02-26T10:54:32.047Z,1035.6
2019-02-26T10:55:51.513Z,1035.63
2019-02-26T10:57:04.439Z,1035.66
2019-02-26T10:58:19.950Z,1035.65
2019-02-26T10:59:29.640Z,1035.7
2019-02-26T11:00:43.500Z,1035.63
2019-02-26T11:02:03.109Z,1035.63
2019-02-26T11:03:17.308Z,1035.64
2019-02-26T11:04:34.614Z,1035.6
2019-02-26T11:05:55.995Z,1035.62
2019-02-26T11:07:14.218Z,1035.62
2019-02-26T11:08:26.719Z,1035.63
2019-02-26T11:09:40.342Z,1035.59
2019-02-26T11:10:59.416Z,1035.61
2019-02-26T11:12:20.548Z,1035.64
2019-02-26T11:13:40.623Z,1035.62
2019-02-26T11:15:01.276Z,1035.64
2019-02-26T11:16:16.965Z,1035.67
2019-02-26T11:17:39.578Z,1035.56
2019-02-26T11:18:56.523Z,1035.61
2019-02-26T11:20:12.881Z,1035.59
2019-02-26T11:21:32.066Z,1035.52
2019-02-26T11:22:42.204Z,1035.53
2019-02-26T11:23:58.394Z,1035.56
2019-02-26T11:25:15.792Z,1035.56
2019-02-26T11:26:35.178Z,1035.54
2019-02-26T11:27:48.595Z,1035.53
2019-02-26T11:28:58.725Z,1035.51
2019-02-26T11:30:08.444Z,1035.46
2019-02-26T11:31:25.412Z,1035.48
2019-02-26T11:32:39.911Z,1035.43
2019-02-26T11:33:50.103Z,1035.44
2019-02-26T11:35:10.124Z,1035.45
2019-02-26T11:36:30.036Z,1035.42
2019-02-26T11:37:47.283Z,1035.39
2019-02-26T11:39:04.839Z,1035.38
2019-02-26T11:40:22.801Z,1035.37
2019-02-26T11:41:37.537Z,1035.38
2019-02-26T11:42:51.286Z,1035.36
2019-02-26T11:44:12.595Z,1035.39
2019-02-26T11:45:34.609Z,1035.4
2019-02-26T11:46:51.344Z,1035.39
2019-02-26T11:48:06.099Z,1035.37
2019-02-26T11:49:19.360Z,1035.37
2019-02-26T11:50:31.637Z,1035.3
2019-02-26T11:51:44.976Z,1035.32
2019-02-26T11:52:55.007Z,1035.28
2019-02-26T11:54:05.605Z,1035.27
2019-02-26T11:55:23.514Z,1035.31
2019-02-26T11:56:42.458Z,1035.28
2019-02-26T11:57:57.644Z,1035.36
2019-02-26T11:59:19.455Z,1035.33
2019-02-26T12:00:36.138Z,1035.28
2019-02-26T12:01:54.117Z,1035.29
2019-02-26T12:03:09.390Z,1035.32
2019-02-26T12:04:23.419Z,1035.31
2019-02-26T12:05:34.006Z,1035.31
2019-02-26T12:06:48.313Z,1035.32
2019-02-26T12:08:04.102Z,1035.3
2019-02-26T12:09:22.353Z,1035.29
2019-02-26T12:10:40.305Z,1035.27
2019-02-26T12:11:52.802Z,1035.27
2019-02-26T12:13:14.429Z,1035.26
2019-02-26T12:14:30.594Z,1035.22
2019-02-26T12:15:49.093Z,1035.17
2019-02-26T12:16:58.549Z,1035.17
2019-02-26T12:18:09.868Z,1035.17
2019-02-26T12:19:25.618Z,1035.18
2019-02-26T12:20:43.387Z,1035.2
2019-02-26T12:21:57.396Z,1035.16
2019-02-26T12:23:16.083Z,1035.14
2019-02-26T12:24:31.364Z,1035.14
2019-02-26T12:25:44.028Z,1035.14
2019-02-26T12:27:02.534Z,1035.12
2019-02-26T12:28:25.311Z,1035.13
2019-02-26T12:29:45.384Z,1035.14
2019-02-26T12:31:01.224Z,1035.16
2019-02-26T12:32:19.881Z,1035.16
2019-02-26T12:33:34.548Z,1035.16
2019-02-26T12:34:47.220Z,1035.16
2019-02-26T12:36:01.298Z,1035.16
2019-02-26T12:37:15.520Z,1035.13
2019-02-26T12:38:25.459Z,1035.16
2019-02-26T12:39:39.117Z,1035.13
2019-02-26T12:40:58.428Z,1035.14
2019-02-26T12:42:21.535Z,1035.13
2019-02-26T12:43:33.105Z,1035.12
2019-02-26T12:44:51.370Z,1035.11
2019-02-26T12:46:10.099Z,1035.14
2019-02-26T12:47:27.713Z,1035.1
2019-02-26T12:48:44.287Z,1035.04
2019-02-26T12:49:58.640Z,1035.03
2019-02-26T12:51:16.369Z,1035.03
2019-02-26T12:52:35.982Z,1035.05
2019-02-26T12:53:54.155Z,1035.01
2019-02-26T12:55:13.284Z,1035.01
2019-02-26T12:56:37.233Z,1035.03
2019-02-26T12:57:50.544Z,1035.05
2019-02-26T12:59:06.978Z,1035.02
2019-02-26T13:00:19.827Z,1035.04
2019-02-26T13:01:33.238Z,1035.03
2019-02-26T13:02:54.436Z,1035.02
2019-02-26T13:04:09.331Z,1035.02
2019-02-26T13:07:25.716Z,1034.97
2019-02-26T13:08:37.014Z,1034.93
2019-02-26T13:09:59.350Z,1034.88
2019-02-26T13:11:13.602Z,1034.84
2019-02-26T13:12:32.210Z,1034.86
2019-02-26T13:13:49.542Z,1034.79
2019-02-26T13:15:04.815Z,1034.77
2019-02-26T13:16:22.049Z,1034.79
2019-02-26T13:17:32.260Z,1034.78
2019-02-26T13:18:47.788Z,1034.75
2019-02-26T13:20:10.998Z,1034.76
2019-02-26T13:21:20.670Z,1034.77
2019-02-26T13:22:30.370Z,1034.77
2019-02-26T13:23:46.241Z,1034.74
2019-02-26T13:25:15.490Z,1034.7
2019-02-26T13:26:35.365Z,1034.71
2019-02-26T13:28:00.312Z,1034.68
2019-02-26T13:29:10.053Z,1034.64
2019-02-26T13:30:19.740Z,1034.62
2019-02-26T13:31:29.209Z,1034.63
2019-02-26T13:33:04.172Z,1034.62
2019-02-26T13:34:27.557Z,1034.56
2019-02-26T13:35:37.254Z,1034.58
2019-02-26T13:38:49.447Z,1034.52
2019-02-26T13:39:59.404Z,1034.48
2019-02-26T13:41:28.676Z,1034.51
2019-02-26T13:42:49.863Z,1034.51
2019-02-26T13:44:08.764Z,1034.49
2019-02-26T13:45:18.713Z,1034.5
2019-02-26T13:46:28.179Z,1034.48
2019-02-26T13:47:37.865Z,1034.45
2019-02-26T13:48:47.317Z,1034.45
2019-02-26T13:49:56.770Z,1034.45
2019-02-26T13:51:06.716Z,1034.4
2019-02-26T13:52:16.656Z,1034.36
2019-02-26T13:53:26.598Z,1034.39
2019-02-26T13:54:36.302Z,1034.37
2019-02-26T13:55:46.267Z,1034.33
2019-02-26T13:56:55.216Z,1034.29
2019-02-26T13:58:11.261Z,1034.31
2019-02-26T13:59:21.587Z,1034.25
2019-02-26T14:00:31.708Z,1034.23
2019-02-26T14:01:41.712Z,1034.15
2019-02-26T14:02:51.456Z,1034.16
2019-02-26T14:04:01.254Z,1034.22
2019-02-26T14:05:11.620Z,1034.25
2019-02-26T14:06:22.150Z,1034.26
2019-02-26T14:07:31.871Z,1034.31
2019-02-26T14:08:42.453Z,1034.29
2019-02-26T14:09:52.171Z,1034.26
2019-02-26T14:11:01.885Z,1034.23
2019-02-26T14:12:11.862Z,1034.22
2019-02-26T14:13:21.821Z,1034.24
2019-02-26T14:14:31.565Z,1034.12
2019-02-26T14:15:41.302Z,1034.13
2019-02-26T14:16:50.792Z,1034.11
2019-02-26T14:18:00.766Z,1034.16
2019-02-26T14:19:10.731Z,1034.13
2019-02-26T14:20:20.447Z,1034.04
2019-02-26T14:21:30.174Z,1034.09
2019-02-26T14:22:39.880Z,1034.05
2019-02-26T14:23:49.847Z,1034.04
2019-02-26T14:24:59.816Z,1034.06
2019-02-26T14:26:09.268Z,1034
2019-02-26T14:27:18.987Z,1034
2019-02-26T14:28:28.947Z,1034.02
2019-02-26T14:29:38.921Z,1034.05
2019-02-26T14:30:48.635Z,1034.03
2019-02-26T14:31:58.588Z,1034.05
2019-02-26T14:33:08.314Z,1034.03
2019-02-26T14:34:18.020Z,1034.02
2019-02-26T14:35:27.978Z,1034.03
2019-02-26T14:36:37.818Z,1034.06
2019-02-26T14:37:47.748Z,1034.08
2019-02-26T14:38:57.907Z,1034.04
2019-02-26T14:40:08.072Z,1034.06
2019-02-26T14:41:17.903Z,1034.04
2019-02-26T14:42:27.618Z,1033.99
2019-02-26T14:43:37.086Z,1033.98
2019-02-26T14:44:47.047Z,1034.01
2019-02-26T14:45:57.006Z,1033.98
2019-02-26T14:47:06.973Z,1034.01
2019-02-26T14:48:16.719Z,1034.03
2019-02-26T14:49:26.695Z,1034.01
2019-02-26T14:50:36.148Z,1034.05
2019-02-26T14:51:45.645Z,1034.04
2019-02-26T14:52:55.611Z,1034.03
2019-02-26T14:54:06.510Z,1034.02
2019-02-26T14:55:16.524Z,1033.99
2019-02-26T14:56:26.511Z,1033.92
2019-02-26T14:57:36.494Z,1033.97
2019-02-26T14:58:46.455Z,1033.9
2019-02-26T14:59:58.073Z,1033.91
2019-02-26T15:01:07.771Z,1033.94
2019-02-26T15:02:17.660Z,1033.89
2019-02-26T15:03:27.463Z,1033.86
2019-02-26T15:04:37.239Z,1033.92
2019-02-26T15:05:46.969Z,1033.93
2019-02-26T15:06:56.883Z,1033.9